Ridgeville, Georgia
Current Conditions -  °F | °C
As of 3:55 PM on Thursday 23 Oct 2014 (Local Time) from KBQK Reporting Station
Clear Clear  
Wind Chill: 72°   Ceiling: Unl
Heat Index: 72°   Visibility: 10mi
Dew Point: 41°   Wind: 3mph
Humidity: 33%   Direction: 240°WSW
Pressure: 30"   Gusts: NA
Location:  31.5632°N, 81.4638°W
Report Text: KBQK 231955Z AUTO 24003KT 10SM CLR 22/05 A3000 RMK AO1
Loading
Personal Weather Stations






























Interactive Weather Map
Tropical Storm Tracking
New forecast layout! Learn more

10-Day Weather Forecast

Advertisements
Track Severe Weather on mobile